Depesze METAR lotnisk w Polsce

METAR – format kodowanego raportu o pogodzie używany w meteorologii lotniczej i prognozie pogody. METAR jest akronimem od ang. Meteorological Aerodrome Report. Typowy METAR zawiera informację o temperaturze, ciśnieniu, temperaturze punktu rosy, sile i kierunku wiatru, opadzie, pokrywie chmur, wysokości podstawy chmur, widzialności, lecz może zawierać też inne informacje (np. stan dróg startowych).

Warszawa-Okęcie (EPWA)

METAR = EPWA 151300Z 03007KT 360V060 9999 FEW017 SCT046 10/06 Q1032 NOSIG

STACJA......... EPWA - Warszawa-Okęcie (WAW)
POMIAR......... Thu Nov 15, 14:00 CET
WIATR.......... północno północno-wschodni (NNE) z prędkością 13 km/h
WIDZIALNOŚĆ.... powyżej 10 kilometrów
CHMURY......... zachmurzenie małe (3/8-4/8)
TEMPERATURA.... 10°C
T.PUNKTU ROSY.. 6°C
WILGOTNOŚĆ..... 76%
T.ODCZUWALNA... 8°C
CIŚNIENIE...... 1032 hPa
CIŚN.BEZWZGL... 1018 hPa
PROGNOZA....... bez nagłych zmian w ciągu 2h

Sprawdź też: Prognoza pogody Warszawa

Warszawa-Modlin (EPMO)

METAR = EPMO 151230Z 03007KT 360V060 9999 BKN049 10/04 Q1032 =

STACJA......... EPMO - Warszawa-Modlin (WMI)
POMIAR......... Thu Nov 15, 13:30 CET
WIATR.......... północno północno-wschodni (NNE) z prędkością 13 km/h
WIDZIALNOŚĆ.... powyżej 10 kilometrów
CHMURY......... zachmurzenie średnie (5/8-7/8)
TEMPERATURA.... 10°C
T.PUNKTU ROSY.. 4°C
WILGOTNOŚĆ..... 67%
T.ODCZUWALNA... 8°C
CIŚNIENIE...... 1032 hPa
CIŚN.BEZWZGL... 1019 hPa

Sprawdź też: Prognoza pogody Nowy Dwór Mazowiecki

Kraków-Balice (EPKK)

METAR = EPKK 151300Z 03006KT 9999 FEW022 BKN046 09/04 Q1030

STACJA......... EPKK - Kraków-Balice (KRK)
POMIAR......... Thu Nov 15, 14:00 CET
WIATR.......... północno północno-wschodni (NNE) z prędkością 11 km/h
WIDZIALNOŚĆ.... powyżej 10 kilometrów
CHMURY......... zachmurzenie średnie (5/8-7/8)
TEMPERATURA.... 9°C
T.PUNKTU ROSY.. 4°C
WILGOTNOŚĆ..... 71%
T.ODCZUWALNA... 7°C
CIŚNIENIE...... 1030 hPa
CIŚN.BEZWZGL... 1000 hPa

Sprawdź też: Prognoza pogody Kraków

Łódź-Lublinek (EPLL)

METAR = EPLL 151300Z 03005KT 350V060 9999 FEW037 BKN044 09/03 Q1032

STACJA......... EPLL - Łódź-Lublinek (LCJ)
POMIAR......... Thu Nov 15, 14:00 CET
WIATR.......... północno północno-wschodni (NNE) z prędkością 9 km/h
WIDZIALNOŚĆ.... powyżej 10 kilometrów
CHMURY......... zachmurzenie średnie (5/8-7/8)
TEMPERATURA.... 9°C
T.PUNKTU ROSY.. 3°C
WILGOTNOŚĆ..... 66%
T.ODCZUWALNA... 7°C
CIŚNIENIE...... 1032 hPa
CIŚN.BEZWZGL... 1009 hPa

Sprawdź też: Prognoza pogody Łódź

Wrocław-Strachowice (EPWR)

METAR = EPWR 151300Z 12006KT 9999 FEW008 08/05 Q1032

STACJA......... EPWR - Wrocław-Strachowice (WRO)
POMIAR......... Thu Nov 15, 14:00 CET
WIATR.......... wschodni południowo-wschodni (ESE) z prędkością 11 km/h
WIDZIALNOŚĆ.... powyżej 10 kilometrów
CHMURY......... zachmurzenie niewielkie (1/8-2/8)
TEMPERATURA.... 8°C
T.PUNKTU ROSY.. 5°C
WILGOTNOŚĆ..... 82%
T.ODCZUWALNA... 6°C
CIŚNIENIE...... 1032 hPa
CIŚN.BEZWZGL... 1017 hPa

Sprawdź też: Prognoza pogody Wrocław

Katowice-Pyrzowice (EPKT)

METAR = EPKT 151300Z 06007KT 9999 SCT028 OVC032 08/02 Q1030

STACJA......... EPKT - Katowice-Pyrzowice (KTW)
POMIAR......... Thu Nov 15, 14:00 CET
WIATR.......... wschodni północno-wschodni (ENE) z prędkością 13 km/h
WIDZIALNOŚĆ.... powyżej 10 kilometrów
CHMURY......... zachmurzenie całkowite (8/8)
TEMPERATURA.... 8°C
T.PUNKTU ROSY.. 2°C
WILGOTNOŚĆ..... 66%
T.ODCZUWALNA... 6°C
CIŚNIENIE...... 1030 hPa
CIŚN.BEZWZGL... 993 hPa

Sprawdź też: Prognoza pogody Katowice

Gdańsk (EPGD)

METAR = EPGD 151300Z 18004KT 140V220 9999 FEW026 SCT037 10/05 Q1033

STACJA......... EPGD - Gdańsk im. Lecha Wałęsy (GDN)
POMIAR......... Thu Nov 15, 14:00 CET
WIATR.......... południowy (S) z prędkością 7 km/h
WIDZIALNOŚĆ.... powyżej 10 kilometrów
CHMURY......... zachmurzenie małe (3/8-4/8)
TEMPERATURA.... 10°C
T.PUNKTU ROSY.. 5°C
WILGOTNOŚĆ..... 71%
T.ODCZUWALNA... 9°C
CIŚNIENIE...... 1033 hPa
CIŚN.BEZWZGL... 1015 hPa

Sprawdź też: Prognoza pogody Gdańsk

Poznań-Ławica (EPPO)

METAR = EPPO 151300Z 11008KT 9999 BKN040 10/03 Q1032 R10/19//95

STACJA......... EPPO - Poznań-Ławica (POZ)
POMIAR......... Thu Nov 15, 14:00 CET
WIATR.......... wschodni południowo-wschodni (ESE) z prędkością 15 km/h
WIDZIALNOŚĆ.... powyżej 10 kilometrów
CHMURY......... zachmurzenie średnie (5/8-7/8)
TEMPERATURA.... 10°C
T.PUNKTU ROSY.. 3°C
WILGOTNOŚĆ..... 62%
T.ODCZUWALNA... 8°C
CIŚNIENIE...... 1032 hPa
CIŚN.BEZWZGL... 1020 hPa
PAS STARTOWY... pas nr 10: wilgotny na 51-100% pasa, dobra przyczepność hamowania

Sprawdź też: Prognoza pogody Poznań

Rzeszów-Jasionka (EPRZ)

METAR = EPRZ 151300Z 32007KT 9999 FEW016CB SCT030 08/05 Q1029

STACJA......... EPRZ - Rzeszów-Jasionka (RZE)
POMIAR......... Thu Nov 15, 14:00 CET
WIATR.......... północno zachodni (NW) z prędkością 13 km/h
WIDZIALNOŚĆ.... powyżej 10 kilometrów
CHMURY......... zachmurzenie małe (3/8-4/8)
TEMPERATURA.... 8°C
T.PUNKTU ROSY.. 5°C
WILGOTNOŚĆ..... 82%
T.ODCZUWALNA... 6°C
CIŚNIENIE...... 1029 hPa
CIŚN.BEZWZGL... 1003 hPa

Sprawdź też: Prognoza pogody Rzeszów

Szczecin-Goleniów (EPSC)

METAR = EPSC 151300Z 14007KT 7000 SCT005 BKN006 07/07 Q1032

STACJA......... EPSC - Szczecin-Goleniów (SZZ)
POMIAR......... Thu Nov 15, 14:00 CET
WIATR.......... południowo wschodni (SE) z prędkością 13 km/h
WIDZIALNOŚĆ.... 7000 metrów
CHMURY......... zachmurzenie średnie (5/8-7/8)
TEMPERATURA.... 7°C
T.PUNKTU ROSY.. 7°C
WILGOTNOŚĆ..... 100%
T.ODCZUWALNA... 5°C
CIŚNIENIE...... 1032 hPa
CIŚN.BEZWZGL... 1026 hPa

Sprawdź też: Prognoza pogody Szczecin

Lublin-Świdnik (EPLB)

METAR = EPLB 151230Z 36008KT 9999 FEW016 BKN025 09/06 Q1029 =

STACJA......... EPLB - Lublin-Świdnik (LUZ)
POMIAR......... Thu Nov 15, 13:30 CET
WIATR.......... północny (N) z prędkością 15 km/h
WIDZIALNOŚĆ.... powyżej 10 kilometrów
CHMURY......... zachmurzenie średnie (5/8-7/8)
TEMPERATURA.... 9°C
T.PUNKTU ROSY.. 6°C
WILGOTNOŚĆ..... 82%
T.ODCZUWALNA... 7°C
CIŚNIENIE...... 1029 hPa
CIŚN.BEZWZGL... 1004 hPa

Sprawdź też: Prognoza pogody Lublin

Bydgoszcz-Szwederowo (EPBY)

METAR = EPBY 151230Z 13004KT 9999 OVC041 10/05 Q1033 =

STACJA......... EPBY - Bydgoszcz-Szwederowo (BZG)
POMIAR......... Thu Nov 15, 13:30 CET
WIATR.......... południowo wschodni (SE) z prędkością 7 km/h
WIDZIALNOŚĆ.... powyżej 10 kilometrów
CHMURY......... zachmurzenie całkowite (8/8)
TEMPERATURA.... 10°C
T.PUNKTU ROSY.. 5°C
WILGOTNOŚĆ..... 71%
T.ODCZUWALNA... 9°C
CIŚNIENIE...... 1033 hPa
CIŚN.BEZWZGL... 1024 hPa

Sprawdź też: Prognoza pogody Bydgoszcz

Zielona Góra-Babimost (EPZG)

METAR = EPZG 151230Z 10004KT 040V130 2100 BR OVC003 06/06 Q1032 =

STACJA......... EPZG - Zielona Góra-Babimost (IEG)
POMIAR......... Thu Nov 15, 13:30 CET
WIATR.......... wschodni (E) z prędkością 7 km/h
WIDZIALNOŚĆ.... 2100 metrów
WARUNKI........ zamglenie 
CHMURY......... zachmurzenie całkowite (8/8)
TEMPERATURA.... 6°C
T.PUNKTU ROSY.. 6°C
WILGOTNOŚĆ..... 100%
T.ODCZUWALNA... 4°C
CIŚNIENIE...... 1032 hPa
CIŚN.BEZWZGL... 1025 hPa

Sprawdź też: Prognoza pogody Zielona Góra

Szymany Olsztyn-Mazury (EPSY)

METAR = EPSY 151230Z 05004KT 020V080 9999 FEW017 SCT023 09/06 Q1033=

STACJA......... EPSY - Olsztyn-Mazury (SZY)
POMIAR......... Thu Nov 15, 13:30 CET
WIATR.......... północno-wschodni (NE) z prędkością 7 km/h
WIDZIALNOŚĆ.... powyżej 10 kilometrów
CHMURY......... zachmurzenie małe (3/8-4/8)
TEMPERATURA.... 9°C
T.PUNKTU ROSY.. 6°C
WILGOTNOŚĆ..... 82%
T.ODCZUWALNA... 8°C
CIŚNIENIE...... 1033 hPa
CIŚN.BEZWZGL... 1016 hPa

Sprawdź też: Prognoza pogody Olsztyn